Time;durP1;ratioP1;P1;durP2;ratioP2;P2;SDS_P1;SDS_P2;PMS_P1;PMS_P2;Temp;Humidity;BMP_temperature;BMP_pressure;BME280_temperature;BME280_humidity;BME280_pressure;Samples;Min_cycle;Max_cycle;Signal;HPM_P1;HPM_P2
2022/04/29 00:01:17;;;;;;;;;34.50;32.25;;;;;15.50;50.18;102502.97;5033257;28;50077;-65
2022/04/29 00:03:42;;;;;;;;;29.00;29.00;;;;;15.52;50.84;102514.50;5015084;28;50139;-64
2022/04/29 00:06:08;;;;;;;;;30.00;29.50;;;;;15.33;50.80;102489.25;5032970;28;50830;-65
2022/04/29 00:08:33;;;;;;;;;33.00;29.50;;;;;15.27;51.53;102498.78;5032556;28;49807;-65
2022/04/29 00:10:59;;;;;;;;;36.75;28.75;;;;;15.15;51.41;102497.59;5032317;28;49720;-65
2022/04/29 00:13:24;;;;;;;;;31.75;28.00;;;;;15.05;51.90;102479.63;5033157;28;50010;-65
2022/04/29 00:15:50;;;;;;;;;39.25;32.25;;;;;15.09;51.84;102485.91;5032519;28;50747;-66
2022/04/29 00:18:16;;;;;;;;;40.00;32.00;;;;;15.15;51.61;102492.28;5014599;28;49595;-65
2022/04/29 00:20:41;;;;;;;;;29.50;29.25;;;;;14.65;52.41;102407.88;5032995;28;49905;-66
2022/04/29 00:23:08;;;;;;;;;31.25;30.50;;;;;15.08;51.82;102485.03;5032650;28;49678;-66
2022/04/29 00:25:34;;;;;;;;;29.00;26.75;;;;;15.13;52.25;102487.78;5032730;28;50928;-66
2022/04/29 00:27:59;;;;;;;;;39.25;33.00;;;;;15.03;52.27;102475.13;5032752;28;49786;-66
2022/04/29 00:30:25;;;;;;;;;29.25;29.25;;;;;15.03;52.41;102480.44;5032639;28;49813;-66
2022/04/29 00:32:51;;;;;;;;;41.25;34.25;;;;;14.98;52.44;102484.69;5033170;28;49829;-65
2022/04/29 00:35:16;;;;;;;;;30.50;30.50;;;;;14.92;53.04;102481.84;5032060;28;49917;-66
2022/04/29 00:37:48;;;;;;;;;35.50;33.50;;;;;14.78;53.16;102469.13;5032583;28;49828;-66
2022/04/29 00:40:15;;;;;;;;;37.75;33.25;;;;;14.70;52.85;102449.50;5032747;28;50091;-66
2022/04/29 00:42:41;;;;;;;;;31.50;29.25;;;;;14.74;52.94;102455.75;5032130;28;49772;-66
2022/04/29 00:45:07;;;;;;;;;32.50;32.50;;;;;14.72;53.10;102458.34;5032149;28;49923;-65
2022/04/29 00:47:32;;;;;;;;;38.00;33.75;;;;;14.77;53.20;102466.44;5032120;28;49649;-66
2022/04/29 00:49:57;;;;;;;;;31.75;29.75;;;;;14.74;53.05;102472.50;5032204;28;49690;-65
2022/04/29 00:52:24;;;;;;;;;40.25;35.25;;;;;14.72;53.55;102476.84;5032414;28;49885;-66
2022/04/29 00:54:55;;;;;;;;;42.50;36.50;;;;;14.46;52.71;102431.09;5031445;28;49738;-66
2022/04/29 00:57:26;;;;;;;;;28.50;28.50;;;;;14.63;53.66;102466.00;5032101;28;49624;-66
2022/04/29 01:00:04;;;;;;;;;37.75;33.75;;;;;14.54;52.96;102449.84;5027910;28;49567;-66
2022/04/29 01:02:31;;;;;;;;;43.25;33.25;;;;;14.54;53.16;102458.69;5032603;28;49812;-66
2022/04/29 01:05:11;;;;;;;;;43.50;35.00;;;;;14.53;53.83;102461.28;5032099;28;49989;-66
2022/04/29 01:07:38;;;;;;;;;34.25;31.50;;;;;14.49;53.41;102447.09;5031892;28;49786;-67
2022/04/29 01:10:06;;;;;;;;;40.25;35.75;;;;;14.47;53.28;102442.56;5032026;28;50075;-66
2022/04/29 01:12:34;;;;;;;;;31.75;30.75;;;;;14.48;53.61;102442.66;5032497;28;50039;-66
2022/04/29 01:15:03;;;;;;;;;38.25;34.50;;;;;14.37;53.71;102425.50;5031962;28;49917;-65
2022/04/29 01:17:30;;;;;;;;;38.50;34.25;;;;;14.41;53.80;102423.88;5031580;28;49795;-66
2022/04/29 01:19:55;;;;;;;;;39.00;35.00;;;;;14.44;53.62;102429.25;5031419;28;49937;-66
2022/04/29 01:22:21;;;;;;;;;29.00;24.75;;;;;14.40;53.38;102422.06;5032212;28;49588;-66
2022/04/29 01:24:50;;;;;;;;;37.25;33.00;;;;;14.43;53.20;102427.44;5010273;28;51623;-66
2022/04/29 01:27:15;;;;;;;;;37.50;32.50;;;;;14.37;53.57;102424.59;5030631;28;49540;-66
2022/04/29 01:29:42;;;;;;;;;30.75;29.50;;;;;14.38;53.21;102434.31;5013906;28;49630;-65
2022/04/29 01:32:09;;;;;;;;;37.75;31.00;;;;;14.36;53.58;102439.56;5032029;28;49600;-66
2022/04/29 01:34:35;;;;;;;;;32.75;31.25;;;;;14.36;53.78;102436.03;5031332;28;50558;-66
2022/04/29 01:37:00;;;;;;;;;34.00;32.25;;;;;14.33;53.54;102440.38;5013276;28;49743;-66
2022/04/29 01:39:26;;;;;;;;;25.00;24.00;;;;;14.23;53.76;102451.47;5031645;28;49840;-66
2022/04/29 01:41:51;;;;;;;;;29.75;29.75;;;;;14.09;54.01;102433.38;5031857;28;49908;-65
2022/04/29 01:44:17;;;;;;;;;39.50;33.25;;;;;14.19;53.73;102451.34;5031545;28;50654;-66
2022/04/29 01:46:43;;;;;;;;;35.25;32.75;;;;;14.15;53.95;102445.03;5031664;28;49748;-65
2022/04/29 01:49:08;;;;;;;;;33.75;33.00;;;;;13.92;54.38;102409.97;5031373;28;49738;-66
2022/04/29 01:51:34;;;;;;;;;31.50;28.75;;;;;14.03;53.79;102424.41;5031673;28;50051;-66
2022/04/29 01:53:59;;;;;;;;;38.50;30.00;;;;;14.08;53.90;102434.22;5030769;28;50799;-66
2022/04/29 01:56:32;;;;;;;;;37.25;34.25;;;;;14.08;54.15;102429.84;5031745;28;49925;-65
2022/04/29 01:59:01;;;;;;;;;35.50;33.00;;;;;14.18;54.26;102442.50;5031133;28;51245;-66
2022/04/29 02:01:27;;;;;;;;;38.50;33.00;;;;;14.18;53.96;102438.97;5031659;28;49830;-65
2022/04/29 02:03:54;;;;;;;;;34.75;30.00;;;;;14.15;54.48;102431.84;5029606;28;50426;-66
2022/04/29 02:06:20;;;;;;;;;41.75;35.50;;;;;14.09;54.25;102447.50;5031060;28;49974;-66
2022/04/29 02:08:45;;;;;;;;;38.00;30.00;;;;;13.99;54.51;102427.81;5030453;28;49721;-66
2022/04/29 02:11:13;;;;;;;;;36.25;33.50;;;;;14.05;54.33;102448.22;5030990;28;50190;-66
2022/04/29 02:13:38;;;;;;;;;44.00;36.25;;;;;13.92;54.62;102438.13;5030940;28;49694;-65
2022/04/29 02:16:04;;;;;;;;;35.00;33.00;;;;;13.88;54.91;102437.09;5031242;28;49933;-65
2022/04/29 02:18:30;;;;;;;;;33.00;31.00;;;;;13.82;54.63;102423.72;5010235;28;49880;-65
2022/04/29 02:20:55;;;;;;;;;40.25;34.25;;;;;13.95;54.53;102443.50;5031019;28;49723;-69
2022/04/29 02:23:21;;;;;;;;;41.25;37.00;;;;;13.96;54.48;102458.47;5030536;28;49635;-68
2022/04/29 02:25:46;;;;;;;;;29.75;28.25;;;;;14.00;54.50;102456.00;5030973;28;49786;-68
2022/04/29 02:28:12;;;;;;;;;36.50;33.25;;;;;13.98;54.72;102459.44;5031060;28;51149;-68
2022/04/29 02:30:37;;;;;;;;;38.25;35.50;;;;;13.97;54.59;102455.88;5031127;28;49919;-66
2022/04/29 02:33:03;;;;;;;;;33.00;32.25;;;;;14.05;54.59;102458.78;5030583;28;50904;-65
2022/04/29 02:35:28;;;;;;;;;32.75;32.50;;;;;13.96;53.69;102434.72;5030877;28;50017;-66
2022/04/29 02:37:53;;;;;;;;;38.50;34.50;;;;;13.98;54.06;102435.66;5029998;28;49884;-65
2022/04/29 02:40:19;;;;;;;;;34.50;33.75;;;;;14.00;53.94;102436.63;5030811;28;49679;-66
2022/04/29 02:42:44;;;;;;;;;33.50;29.25;;;;;14.10;53.58;102449.28;5030444;28;50902;-65
2022/04/29 02:45:10;;;;;;;;;38.25;32.00;;;;;14.04;53.55;102425.31;5023486;28;49649;-66
2022/04/29 02:47:36;;;;;;;;;28.00;28.00;;;;;14.16;53.50;102441.56;5030384;28;49822;-65
2022/04/29 02:50:01;;;;;;;;;35.00;32.25;;;;;14.16;53.44;102460.03;5030837;28;49961;-65
2022/04/29 02:52:27;;;;;;;;;33.00;33.00;;;;;14.14;53.82;102459.09;5030223;28;50716;-66
2022/04/29 02:54:52;;;;;;;;;37.75;33.25;;;;;14.11;53.33;102450.19;5011035;28;49860;-65
2022/04/29 02:57:17;;;;;;;;;35.50;31.00;;;;;14.13;53.84;102446.75;5030610;28;49930;-66
2022/04/29 02:59:42;;;;;;;;;36.50;32.75;;;;;14.11;53.27;102451.09;5030577;28;49694;-66
2022/04/29 03:02:08;;;;;;;;;45.25;35.25;;;;;13.98;53.51;102443.59;5029799;28;50367;-65
2022/04/29 03:04:33;;;;;;;;;33.75;30.00;;;;;13.79;53.48;102409.50;5032846;28;49958;-66
2022/04/29 03:06:59;;;;;;;;;34.75;33.25;;;;;13.85;53.63;102423.81;5012291;28;49671;-65
2022/04/29 03:09:25;;;;;;;;;31.00;29.25;;;;;13.96;53.64;102453.19;5029786;28;49923;-66
2022/04/29 03:11:50;;;;;;;;;23.25;22.50;;;;;13.97;53.88;102455.88;5029962;28;51062;-65
2022/04/29 03:14:16;;;;;;;;;31.75;30.25;;;;;13.84;53.64;102426.41;5030223;28;49623;-66
2022/04/29 03:16:42;;;;;;;;;28.50;27.00;;;;;13.84;53.83;102436.97;5012420;28;49092;-65
2022/04/29 03:19:08;;;;;;;;;38.25;34.25;;;;;13.92;53.17;102443.41;5030126;28;50146;-66
2022/04/29 03:21:34;;;;;;;;;35.00;32.00;;;;;13.94;53.39;102445.22;5029443;28;49950;-65
2022/04/29 03:24:03;;;;;;;;;29.25;24.25;;;;;13.87;53.35;102431.78;5029036;28;49844;-66
2022/04/29 03:26:29;;;;;;;;;37.75;34.00;;;;;13.82;53.58;102438.66;5030081;28;49911;-66
2022/04/29 03:28:54;;;;;;;;;38.25;30.25;;;;;13.75;53.74;102424.34;5030268;28;49926;-66
2022/04/29 03:31:20;;;;;;;;;36.25;32.50;;;;;13.70;53.83;102410.06;5029765;28;49736;-66
2022/04/29 03:33:45;;;;;;;;;42.50;35.50;;;;;13.95;53.64;102430.28;5029980;28;50171;-66
2022/04/29 03:36:10;;;;;;;;;39.00;34.00;;;;;13.96;53.28;102421.53;5029986;28;50420;-65
2022/04/29 03:38:36;;;;;;;;;32.75;31.50;;;;;13.98;53.41;102426.00;5029835;28;49681;-66
2022/04/29 03:41:02;;;;;;;;;31.75;28.25;;;;;13.97;53.75;102416.28;5011467;28;51688;-66
2022/04/29 03:43:28;;;;;;;;;33.25;29.50;;;;;13.95;53.04;102407.41;5029826;28;50237;-66
2022/04/29 03:45:53;;;;;;;;;42.25;36.00;;;;;14.00;53.29;102410.22;5030097;28;49781;-66
2022/04/29 03:48:19;;;;;;;;;33.25;32.25;;;;;13.81;53.51;102382.31;5029952;28;49726;-65
2022/04/29 03:50:44;;;;;;;;;39.50;34.00;;;;;14.02;53.65;102412.06;5029404;28;51054;-65
2022/04/29 03:53:09;;;;;;;;;32.00;27.25;;;;;13.89;54.38;102401.03;5010023;28;51164;-66
2022/04/29 03:55:35;;;;;;;;;35.25;33.00;;;;;13.91;54.08;102400.25;5029977;28;49811;-65
2022/04/29 03:58:02;;;;;;;;;39.50;33.25;;;;;13.94;53.96;102405.63;5029771;28;49933;-65
2022/04/29 04:00:32;;;;;;;;;46.75;34.50;;;;;13.82;53.63;102406.97;5029225;28;50840;-65
2022/04/29 04:02:59;;;;;;;;;30.25;28.25;;;;;13.65;53.92;102394.09;5011157;28;49883;-66
2022/04/29 04:05:25;;;;;;;;;39.50;36.00;;;;;13.53;54.18;102391.03;5009754;28;51085;-67
2022/04/29 04:07:50;;;;;;;;;41.50;36.00;;;;;13.60;54.29;102414.13;5029434;28;50272;-65
2022/04/29 04:10:16;;;;;;;;;40.50;34.50;;;;;13.42;54.45;102380.13;5028736;28;49784;-65
2022/04/29 04:12:49;;;;;;;;;33.75;31.00;;;;;13.61;54.19;102412.44;5029686;28;49922;-66
2022/04/29 04:15:16;;;;;;;;;48.50;40.00;;;;;13.56;54.74;102412.25;5029304;28;49815;-67
2022/04/29 04:17:42;;;;;;;;;39.25;32.50;;;;;13.57;54.89;102410.50;5029224;28;49964;-66
2022/04/29 04:20:10;;;;;;;;;47.25;37.00;;;;;13.52;54.40;102409.47;5024338;28;53012;-66
2022/04/29 04:22:36;;;;;;;;;48.75;36.75;;;;;13.34;54.49;102384.22;5029046;28;49760;-66
2022/04/29 04:25:08;;;;;;;;;34.50;33.25;;;;;13.23;54.66;102377.69;5029144;28;49682;-67
2022/04/29 04:27:33;;;;;;;;;34.50;29.25;;;;;13.43;54.71;102415.31;5029287;28;49815;-66
2022/04/29 04:30:00;;;;;;;;;36.50;31.25;;;;;13.41;55.10;102412.63;5029188;28;49830;-68
2022/04/29 04:32:26;;;;;;;;;38.00;34.25;;;;;13.44;54.97;102407.44;5028890;28;49910;-67
2022/04/29 04:34:53;;;;;;;;;40.75;34.25;;;;;13.35;54.63;102393.03;5031430;28;49786;-66
2022/04/29 04:37:26;;;;;;;;;36.25;34.00;;;;;13.37;55.26;102392.25;5026415;28;49764;-66
2022/04/29 04:39:52;;;;;;;;;30.50;30.50;;;;;13.48;54.42;102405.81;5026239;28;49717;-65
2022/04/29 04:42:18;;;;;;;;;45.00;37.00;;;;;13.51;54.65;102411.22;5032353;28;49864;-65
2022/04/29 04:44:48;;;;;;;;;43.25;37.00;;;;;13.50;54.53;102401.47;5032586;28;49798;-66
2022/04/29 04:47:15;;;;;;;;;46.25;38.25;;;;;13.23;54.31;102366.25;5032438;28;49805;-65
2022/04/29 04:49:40;;;;;;;;;37.25;32.50;;;;;13.28;54.58;102381.38;5032298;28;49892;-65
2022/04/29 04:52:06;;;;;;;;;32.25;31.75;;;;;13.43;54.21;102405.66;5032016;28;49858;-65
2022/04/29 04:54:32;;;;;;;;;44.50;38.50;;;;;13.56;54.35;102421.91;5032019;28;49958;-65
2022/04/29 04:56:57;;;;;;;;;44.00;33.00;;;;;13.40;54.31;102405.53;5032275;28;49932;-65
2022/04/29 04:59:23;;;;;;;;;40.75;33.00;;;;;13.59;54.03;102422.91;5032144;28;50986;-65
2022/04/29 05:01:49;;;;;;;;;46.25;36.00;;;;;13.37;54.30;102378.16;5032374;28;49757;-65
2022/04/29 05:04:14;;;;;;;;;43.50;36.25;;;;;13.45;54.28;102398.69;5032072;28;49968;-66
2022/04/29 05:06:40;;;;;;;;;36.25;30.00;;;;;13.61;53.94;102422.97;5032496;28;49962;-65
2022/04/29 05:09:06;;;;;;;;;33.25;29.50;;;;;13.60;54.10;102426.44;5012558;28;50625;-65
2022/04/29 05:11:32;;;;;;;;;33.00;28.50;;;;;13.57;54.07;102426.34;5013986;28;49772;-65
2022/04/29 05:13:57;;;;;;;;;27.75;26.00;;;;;13.56;54.19;102421.91;5031813;28;49758;-65
2022/04/29 05:16:24;;;;;;;;;42.25;35.25;;;;;13.49;53.92;102410.22;5032174;28;49865;-65
2022/04/29 05:18:49;;;;;;;;;38.00;34.00;;;;;13.67;54.46;102433.72;5031751;28;49981;-65
2022/04/29 05:21:15;;;;;;;;;39.50;34.75;;;;;13.57;54.31;102408.75;5017363;28;50160;-66
2022/04/29 05:23:40;;;;;;;;;38.50;34.25;;;;;13.68;53.68;102422.31;5031418;28;50122;-65
2022/04/29 05:26:06;;;;;;;;;35.25;32.50;;;;;13.72;53.54;102435.69;5032001;28;49868;-67
2022/04/29 05:28:31;;;;;;;;;33.25;31.25;;;;;13.69;54.10;102419.72;5031634;28;49759;-65
2022/04/29 05:30:57;;;;;;;;;41.50;36.75;;;;;13.72;54.14;102435.69;5031863;28;49863;-68
2022/04/29 05:33:23;;;;;;;;;43.75;36.00;;;;;13.73;54.20;102424.28;5031711;28;49841;-67
2022/04/29 05:35:49;;;;;;;;;42.75;35.50;;;;;13.79;54.09;102433.25;5031913;28;50000;-67
2022/04/29 05:38:15;;;;;;;;;38.00;33.75;;;;;13.90;53.49;102448.63;5031427;28;50972;-69
2022/04/29 05:43:27;;;;;;;;;43.00;34.50;;;;;13.87;53.95;102451.16;5031220;28;49860;-66
2022/04/29 05:45:52;;;;;;;;;37.50;33.00;;;;;13.75;53.76;102426.97;5030950;28;49999;-66
2022/04/29 05:48:18;;;;;;;;;45.00;36.25;;;;;13.74;53.89;102435.75;5031416;28;50240;-68
2022/04/29 05:50:43;;;;;;;;;39.50;33.75;;;;;13.65;53.90;102438.06;5031287;28;49874;-74
2022/04/29 05:53:08;;;;;;;;;44.25;36.00;;;;;13.55;54.07;102413.09;5031552;28;49892;-64
2022/04/29 05:55:33;;;;;;;;;34.75;31.00;;;;;13.75;53.76;102458.66;5032161;28;50188;-62
2022/04/29 05:58:00;;;;;;;;;38.00;32.50;;;;;13.85;53.67;102457.22;5031153;28;51792;-66
2022/04/29 06:00:25;;;;;;;;;36.25;30.75;;;;;13.78;53.75;102456.09;5025524;28;49635;-65
2022/04/29 06:02:52;;;;;;;;;35.50;33.00;;;;;13.63;53.54;102439.75;5031097;28;49627;-64
2022/04/29 06:05:17;;;;;;;;;42.50;37.75;;;;;13.79;53.88;102467.56;5031592;28;49817;-64
2022/04/29 06:07:44;;;;;;;;;31.50;30.25;;;;;13.75;53.56;102458.66;5031239;28;50759;-64
2022/04/29 06:10:09;;;;;;;;;36.25;33.25;;;;;13.81;53.54;102457.97;5030276;28;50080;-62
2022/04/29 06:12:41;;;;;;;;;42.00;35.75;;;;;13.86;53.33;102459.00;5030526;28;50039;-62
2022/04/29 06:15:13;;;;;;;;;34.75;30.25;;;;;13.99;53.66;102471.78;5013140;28;50055;-64
2022/04/29 06:17:39;;;;;;;;;39.75;33.50;;;;;13.98;52.71;102473.53;5031167;28;51146;-67
2022/04/29 06:20:04;;;;;;;;;50.25;38.50;;;;;14.06;53.56;102479.06;5030846;28;49903;-66
2022/04/29 06:22:31;;;;;;;;;37.75;34.25;;;;;14.11;52.58;102466.03;5005854;28;50340;-66
2022/04/29 06:24:57;;;;;;;;;47.00;35.50;;;;;14.21;52.13;102481.34;5030576;28;49698;-67
2022/04/29 06:27:22;;;;;;;;;53.50;38.75;;;;;14.09;52.30;102465.06;5031061;28;50483;-66
2022/04/29 06:29:48;;;;;;;;;42.50;35.25;;;;;14.17;53.05;102471.50;5013592;28;49748;-67
2022/04/29 06:32:13;;;;;;;;;37.00;34.75;;;;;14.12;53.45;102454.63;5012966;28;49670;-66
2022/04/29 06:34:38;;;;;;;;;36.00;33.75;;;;;14.38;54.07;102473.94;5030924;28;49885;-66
2022/04/29 06:37:05;;;;;;;;;42.75;36.75;;;;;14.35;53.23;102474.75;5030496;28;49908;-66
2022/04/29 06:39:30;;;;;;;;;35.25;32.00;;;;;14.28;53.88;102451.63;5030404;28;49861;-66
2022/04/29 06:41:56;;;;;;;;;38.25;34.75;;;;;14.32;53.05;102453.53;5030804;28;49829;-66
2022/04/29 06:44:21;;;;;;;;;37.00;33.00;;;;;14.44;52.83;102467.13;5030580;28;49851;-66
2022/04/29 06:46:50;;;;;;;;;42.00;36.00;;;;;14.49;52.72;102475.25;5030324;28;50957;-66
2022/04/29 06:49:15;;;;;;;;;37.00;34.50;;;;;14.56;52.30;102480.75;5033264;28;49775;-73
2022/04/29 06:51:41;;;;;;;;;38.25;35.25;;;;;14.38;52.50;102442.25;5030996;28;49679;-69
2022/04/29 06:54:06;;;;;;;;;39.25;35.25;;;;;14.37;52.08;102448.38;5030555;28;49906;-71
2022/04/29 06:56:31;;;;;;;;;41.50;36.00;;;;;14.33;52.70;102473.81;5029753;28;50599;-66
2022/04/29 06:58:57;;;;;;;;;37.50;32.75;;;;;14.07;53.44;102474.69;5029526;28;49845;-65
2022/04/29 07:01:22;;;;;;;;;39.25;36.75;;;;;14.06;53.41;102492.28;5030329;28;49929;-64
2022/04/29 07:03:47;;;;;;;;;47.25;36.00;;;;;13.81;54.25;102468.53;5030491;28;50036;-65
2022/04/29 07:06:13;;;;;;;;;47.00;38.50;;;;;13.74;54.78;102477.97;5030308;28;51340;-64
2022/04/29 07:08:38;;;;;;;;;47.75;37.75;;;;;13.80;54.92;102504.59;5029291;28;50481;-65
2022/04/29 07:11:04;;;;;;;;;44.75;38.25;;;;;13.77;55.29;102499.19;5029575;28;49945;-65
2022/04/29 07:13:30;;;;;;;;;42.50;30.75;;;;;14.04;55.52;102513.34;5029853;28;49770;-67
2022/04/29 07:15:56;;;;;;;;;45.75;37.50;;;;;13.89;55.61;102498.72;5027563;28;49865;-66
2022/04/29 07:18:21;;;;;;;;;43.50;37.00;;;;;14.10;55.67;102493.28;5030475;28;49742;-66
2022/04/29 07:20:46;;;;;;;;;47.50;39.50;;;;;13.85;56.41;102500.34;5030313;28;50370;-65
2022/04/29 07:23:12;;;;;;;;;45.25;38.25;;;;;13.89;55.76;102490.78;5030478;28;49790;-68
2022/04/29 07:25:37;;;;;;;;;39.75;33.00;;;;;14.03;55.36;102487.78;5030005;28;49840;-67
2022/04/29 07:28:03;;;;;;;;;43.75;36.75;;;;;14.12;55.54;102488.97;5029431;28;49956;-66
2022/04/29 07:30:29;;;;;;;;;51.75;42.50;;;;;14.19;54.48;102461.91;5036839;28;49952;-67
2022/04/29 07:32:54;;;;;;;;;44.00;39.25;;;;;14.35;54.20;102473.84;5028986;28;50056;-67
2022/04/29 07:43:33;;;;;;;;;50.00;40.00;;;;;15.39;52.78;102485.91;5027979;28;49881;-67
2022/04/29 07:45:59;;;;;;;;;51.50;39.00;;;;;15.12;51.60;102423.41;5029632;28;50323;-67
2022/04/29 07:48:25;;;;;;;;;49.50;39.75;;;;;15.45;51.69;102472.84;5029643;28;49745;-66
2022/04/29 07:50:51;;;;;;;;;48.75;37.50;;;;;15.42;51.77;102471.00;5029398;28;50111;-67
2022/04/29 07:53:16;;;;;;;;;51.25;38.50;;;;;15.74;51.33;102506.34;5026449;28;49646;-67
2022/04/29 07:55:43;;;;;;;;;47.50;39.50;;;;;15.76;50.80;102486.97;5029584;28;49751;-67
2022/04/29 07:58:09;;;;;;;;;49.00;41.25;;;;;15.72;51.24;102480.66;5029739;28;49833;-67
2022/04/29 08:00:37;;;;;;;;;46.25;37.75;;;;;16.03;50.73;102508.88;5029906;28;49622;-67
2022/04/29 08:03:03;;;;;;;;;51.50;41.75;;;;;16.12;50.21;102509.13;5029984;28;49849;-66
2022/04/29 08:05:29;;;;;;;;;43.25;36.50;;;;;16.24;50.69;102511.19;5029696;28;50956;-67
2022/04/29 08:07:59;;;;;;;;;42.00;35.75;;;;;16.21;49.45;102474.91;5029423;28;50322;-67
2022/04/29 08:10:25;;;;;;;;;50.75;41.00;;;;;16.47;49.60;102502.03;5012900;28;49888;-67
2022/04/29 08:12:50;;;;;;;;;54.50;44.25;;;;;16.46;48.29;102523.22;5033024;28;49793;-67
2022/04/29 08:15:16;;;;;;;;;49.50;40.25;;;;;16.31;49.00;102486.63;5033164;28;50535;-67
2022/04/29 08:17:41;;;;;;;;;53.75;43.00;;;;;16.37;48.55;102483.22;5033130;28;49797;-67
2022/04/29 08:20:08;;;;;;;;;35.50;32.50;;;;;16.26;49.08;102472.38;5032992;28;50298;-67
2022/04/29 08:22:34;;;;;;;;;52.25;41.50;;;;;16.38;48.96;102520.38;5032841;28;49738;-67
2022/04/29 08:25:00;;;;;;;;;51.25;42.50;;;;;16.27;49.66;102496.25;5032802;28;50915;-67
2022/04/29 08:27:25;;;;;;;;;50.75;42.25;;;;;16.43;49.29;102521.38;5029640;28;49709;-67
2022/04/29 08:29:51;;;;;;;;;49.75;41.75;;;;;16.22;48.87;102489.06;5032877;28;50187;-67
2022/04/29 08:32:16;;;;;;;;;49.50;41.00;;;;;16.20;49.19;102491.66;5032587;28;49845;-67
2022/04/29 08:34:42;;;;;;;;;47.50;41.00;;;;;16.39;49.20;102497.41;5032284;28;50917;-68
2022/04/29 08:37:08;;;;;;;;;50.75;41.50;;;;;16.49;48.56;102520.63;5033046;28;49669;-67
2022/04/29 08:39:34;;;;;;;;;49.25;40.75;;;;;16.31;48.84;102484.88;5030543;28;50033;-67
2022/04/29 08:42:02;;;;;;;;;46.50;38.50;;;;;16.35;48.42;102495.56;5030642;28;49889;-67
2022/04/29 08:44:31;;;;;;;;;46.25;38.50;;;;;16.53;48.65;102510.16;5023453;28;49951;-67
2022/04/29 08:46:58;;;;;;;;;49.00;38.50;;;;;16.62;48.80;102476.75;5029727;28;49784;-67
2022/04/29 08:49:25;;;;;;;;;46.75;37.00;;;;;16.85;48.04;102502.97;5014819;28;49656;-67
2022/04/29 08:51:51;;;;;;;;;49.00;39.00;;;;;16.93;47.71;102512.88;5031124;28;49797;-68
2022/04/29 08:59:57;;;;;;;;;47.50;39.00;;;;;17.33;46.51;102488.06;5036446;28;49843;-67
2022/04/29 09:02:22;;;;;;;;;51.00;40.75;;;;;17.41;47.29;102468.78;5048051;28;49714;-67
2022/04/29 09:04:49;;;;;;;;;50.25;40.25;;;;;17.88;45.91;102498.03;5039085;28;50529;-67
2022/04/29 09:07:15;;;;;;;;;45.25;38.25;;;;;17.84;46.03;102469.63;5031968;28;49870;-67
2022/04/29 09:09:40;;;;;;;;;47.50;38.50;;;;;18.06;44.97;102484.19;5034859;28;49943;-67
2022/04/29 09:12:16;;;;;;;;;50.75;41.50;;;;;18.22;45.12;102509.25;5036837;28;49686;-67
2022/04/29 09:14:42;;;;;;;;;38.50;32.25;;;;;18.34;45.29;102511.25;5046903;28;50498;-67
2022/04/29 09:17:28;;;;;;;;;51.25;41.00;;;;;18.26;44.31;102469.47;5040225;28;49665;-68
2022/04/29 09:19:53;;;;;;;;;46.75;38.00;;;;;18.10;44.23;102418.69;5031515;28;49871;-68
2022/04/29 09:22:18;;;;;;;;;37.00;31.25;;;;;18.59;44.31;102482.38;5031404;28;49763;-68
2022/04/29 09:25:00;;;;;;;;;43.75;37.50;;;;;18.61;43.57;102474.44;5031858;28;50898;-67
2022/04/29 09:27:25;;;;;;;;;49.00;40.00;;;;;18.63;43.56;102478.03;5027007;28;49800;-69
2022/04/29 09:29:58;;;;;;;;;37.25;32.50;;;;;18.82;43.76;102487.22;5032099;28;50050;-69
2022/04/29 09:32:23;;;;;;;;;48.50;39.00;;;;;18.84;43.64;102489.00;5025012;28;49837;-69
2022/04/29 09:34:58;;;;;;;;;48.75;38.25;;;;;18.95;43.45;102496.25;5032037;28;49754;-69
2022/04/29 09:37:26;;;;;;;;;41.25;36.75;;;;;19.00;42.20;102482.09;5031700;28;49884;-68
2022/04/29 09:40:04;;;;;;;;;40.25;34.25;;;;;19.10;42.39;102489.34;5031997;28;49837;-68
2022/04/29 09:42:40;;;;;;;;;44.25;37.25;;;;;19.14;42.70;102475.22;5028819;28;49715;-69
2022/04/29 09:45:20;;;;;;;;;41.50;37.00;;;;;19.19;42.38;102471.69;5032071;28;50485;-69
2022/04/29 09:47:53;;;;;;;;;46.50;37.00;;;;;19.14;42.24;102476.97;5010638;28;50127;-68
2022/04/29 09:50:18;;;;;;;;;42.50;38.00;;;;;19.33;42.25;102472.78;5029049;28;49628;-69
2022/04/29 09:52:45;;;;;;;;;43.50;34.00;;;;;19.37;41.37;102486.13;5032002;28;49745;-68
2022/04/29 09:55:19;;;;;;;;;51.00;39.75;;;;;19.29;42.06;102466.50;5032476;28;50080;-68
2022/04/29 09:57:56;;;;;;;;;45.00;36.25;;;;;19.45;41.40;102480.91;5031961;28;49876;-69
2022/04/29 10:00:22;;;;;;;;;42.00;34.50;;;;;19.58;41.51;102461.53;5026408;28;49819;-68
2022/04/29 10:02:51;;;;;;;;;47.25;36.25;;;;;19.74;39.95;102481.25;5031909;28;49604;-68
2022/04/29 10:05:16;;;;;;;;;43.75;36.00;;;;;19.99;40.27;102482.41;5031626;28;51258;-69
2022/04/29 10:07:43;;;;;;;;;48.75;39.25;;;;;20.00;40.33;102479.75;5024614;28;49793;-70
2022/04/29 10:10:09;;;;;;;;;47.50;39.00;;;;;19.89;39.26;102473.44;5031409;28;49850;-69
2022/04/29 10:12:35;;;;;;;;;49.50;40.75;;;;;19.89;40.37;102476.09;5032118;28;50001;-65
2022/04/29 10:15:05;;;;;;;;;45.50;37.25;;;;;20.09;39.89;102480.72;5031205;28;49650;-66
2022/04/29 10:23:10;;;;;;;;;46.50;38.75;;;;;19.36;41.43;102491.44;5032735;28;49803;-73
2022/04/29 10:25:46;;;;;;;;;43.75;35.75;;;;;18.87;41.92;102382.59;5012581;28;51214;-73
2022/04/29 10:28:22;;;;;;;;;38.25;34.00;;;;;19.30;41.87;102484.31;5030239;28;49732;-73
2022/04/29 10:31:02;;;;;;;;;51.25;41.25;;;;;18.37;41.90;102360.63;5011213;28;49872;-73
2022/04/29 10:33:28;;;;;;;;;40.50;34.75;;;;;19.07;42.99;102448.50;5029483;28;49820;-72
2022/04/29 10:36:09;;;;;;;;;46.75;37.25;;;;;19.19;41.56;102447.75;5012554;28;52216;-72
2022/04/29 10:38:36;;;;;;;;;51.75;40.50;;;;;18.45;40.77;102419.25;5030617;28;49836;-72
2022/04/29 10:41:25;;;;;;;;;39.50;34.50;;;;;18.27;41.95;102346.31;5031227;28;49819;-72
2022/04/29 10:43:50;;;;;;;;;44.25;37.75;;;;;18.85;42.00;102458.88;5010021;28;49819;-74
2022/04/29 10:46:39;;;;;;;;;38.00;34.75;;;;;18.91;41.83;102465.13;5030883;28;49969;-72
2022/04/29 10:49:22;;;;;;;;;38.75;35.25;;;;;18.98;41.71;102457.25;5023173;28;49809;-73
2022/04/29 10:51:55;;;;;;;;;41.00;34.00;;;;;18.67;41.65;102362.84;5030736;28;49813;-74
2022/04/29 10:54:40;;;;;;;;;33.00;30.25;;;;;19.11;40.83;102468.97;5030636;28;49911;-73
2022/04/29 10:57:14;;;;;;;;;33.00;30.50;;;;;19.15;40.22;102486.75;5031241;28;49847;-74
2022/04/29 11:00:00;;;;;;;;;32.50;29.75;;;;;18.48;39.86;102392.69;5013183;28;50348;-73
2022/04/29 11:02:25;;;;;;;;;41.25;35.00;;;;;18.87;40.46;102467.75;5030847;28;49611;-68
2022/04/29 11:04:51;;;;;;;;;35.50;32.00;;;;;19.04;40.16;102432.50;5030980;28;49544;-67
2022/04/29 11:07:39;;;;;;;;;44.50;35.75;;;;;19.32;40.00;102465.66;5032350;28;50938;-67
2022/04/29 11:10:18;;;;;;;;;39.75;33.75;;;;;18.80;39.81;102362.09;5034166;28;49904;-67
2022/04/29 11:13:11;;;;;;;;;45.00;34.75;;;;;19.60;39.70;102462.47;5028662;28;49659;-69
2022/04/29 11:15:45;;;;;;;;;34.50;29.00;;;;;19.70;38.57;102464.34;5020338;28;50103;-67
2022/04/29 11:18:23;;;;;;;;;36.50;34.00;;;;;19.80;38.67;102472.44;5023765;28;50770;-65
2022/04/29 11:20:56;;;;;;;;;29.50;24.75;;;;;19.68;38.33;102463.41;5018930;28;49888;-64
2022/04/29 11:26:45;;;;;;;;;33.75;31.50;;;;;19.78;38.44;102456.41;4973575;28;50117;-68
2022/04/29 11:29:11;;;;;;;;;32.00;24.75;;;;;19.91;37.80;102457.44;4980870;28;49711;-69
2022/04/29 11:31:37;;;;;;;;;29.00;22.00;;;;;19.90;37.91;102445.91;4997998;28;49802;-68
2022/04/29 11:34:20;;;;;;;;;40.25;34.50;;;;;20.05;38.40;102449.56;5023496;28;49763;-67
2022/04/29 11:36:47;;;;;;;;;40.50;33.25;;;;;20.00;38.38;102433.53;5011826;28;49975;-67